Time;durP1;ratioP1;P1;durP2;ratioP2;P2;SDS_P1;SDS_P2;PMS_P1;PMS_P2;Temp;Humidity;BMP_temperature;BMP_pressure;BME280_temperature;BME280_humidity;BME280_pressure;Samples;Min_cycle;Max_cycle;Signal;HPM_P1;HPM_P2
2022/09/01 00:02:18;;;;;;;18.35;9.48;;;;;;;;;;6207781;28;20165;-56
2022/09/01 00:05:18;;;;;;;19.13;9.73;;;;;;;;;;6207109;28;20092;-57
2022/09/01 00:08:21;;;;;;;25.17;9.25;;;;;;;;;;6208229;28;20050;-56
2022/09/01 00:11:22;;;;;;;;;;;;;;;;;;6214116;28;20120;-56
2022/09/01 00:14:26;;;;;;;20.60;8.95;;;;;;;;;;6216295;28;20027;-55
2022/09/01 00:17:27;;;;;;;19.98;8.75;;;;;;;;;;6215158;28;20050;-56
2022/09/01 00:20:28;;;;;;;21.42;8.48;;;;;;;;;;6215312;28;20037;-56
2022/09/01 00:23:28;;;;;;;27.17;8.65;;;;;;;;;;6207492;28;20504;-56
2022/09/01 00:26:29;;;;;;;23.75;8.30;;;;;;;;;;6207301;28;20402;-56
2022/09/01 00:29:30;;;;;;;21.45;7.93;;;;;;;;;;6207696;28;20097;-52
2022/09/01 00:32:31;;;;;;;18.88;8.27;;;;;;;;;;6211245;28;20038;-56
2022/09/01 00:35:31;;;;;;;25.50;8.32;;;;;;;;;;6207781;28;20030;-54
2022/09/01 00:38:33;;;;;;;22.55;8.55;;;;;;;;;;6208781;28;20100;-57
2022/09/01 00:41:37;;;;;;;18.27;8.23;;;;;;;;;;6207767;28;20046;-55
2022/09/01 00:44:37;;;;;;;26.02;8.75;;;;;;;;;;6206503;28;20584;-54
2022/09/01 00:47:38;;;;;;;19.38;8.23;;;;;;;;;;6207417;28;20051;-56
2022/09/01 00:50:39;;;;;;;22.40;8.57;;;;;;;;;;6207073;28;20053;-56
2022/09/01 00:53:42;;;;;;;23.50;9.05;;;;;;;;;;6208454;28;20415;-56
2022/09/01 00:56:44;;;;;;;25.40;8.88;;;;;;;;;;6208476;28;20085;-56
2022/09/01 00:59:50;;;;;;;19.70;8.02;;;;;;;;;;6207832;28;20037;-56
2022/09/01 01:02:54;;;;;;;25.63;9.13;;;;;;;;;;6207338;28;20054;-54
2022/09/01 01:05:57;;;;;;;22.35;9.05;;;;;;;;;;6208992;28;20045;-54
2022/09/01 01:08:59;;;;;;;20.80;8.60;;;;;;;;;;6211007;28;20141;-55
2022/09/01 01:12:01;;;;;;;;;;;;;;;;;;6213738;28;20045;-56
2022/09/01 01:15:05;;;;;;;32.43;10.10;;;;;;;;;;6209731;28;19940;-56
2022/09/01 01:18:06;;;;;;;23.17;8.82;;;;;;;;;;6212840;28;20662;-57
2022/09/01 01:24:34;;;;;;;21.48;9.60;;;;;;;;;;6212656;28;20627;-55
2022/09/01 01:27:34;;;;;;;20.15;8.75;;;;;;;;;;6209479;28;20040;-56
2022/09/01 01:30:39;;;;;;;24.70;9.05;;;;;;;;;;6210236;28;20053;-57
2022/09/01 01:33:49;;;;;;;19.85;9.43;;;;;;;;;;6212930;28;20079;-55
2022/09/01 01:36:50;;;;;;;23.38;9.65;;;;;;;;;;6211500;28;20081;-54
2022/09/01 01:39:51;;;;;;;22.43;9.63;;;;;;;;;;6210055;28;20041;-55
2022/09/01 01:42:53;;;;;;;19.20;9.45;;;;;;;;;;6210914;28;20785;-56
2022/09/01 01:46:01;;;;;;;23.80;9.50;;;;;;;;;;6209996;28;20136;-54
2022/09/01 01:49:03;;;;;;;22.48;10.43;;;;;;;;;;6208735;28;20052;-56
2022/09/01 01:52:04;;;;;;;21.40;9.85;;;;;;;;;;6209339;28;20486;-56
2022/09/01 01:55:11;;;;;;;23.92;10.73;;;;;;;;;;6210536;28;20050;-56
2022/09/01 01:58:13;;;;;;;22.73;9.02;;;;;;;;;;6210954;28;20137;-56
2022/09/01 02:01:15;;;;;;;;;;;;;;;;;;6212490;28;20054;-54
2022/09/01 02:04:18;;;;;;;19.40;7.93;;;;;;;;;;6209763;28;19925;-55
2022/09/01 02:07:19;;;;;;;19.67;8.50;;;;;;;;;;6209762;28;20125;-56
2022/09/01 02:10:20;;;;;;;19.58;8.80;;;;;;;;;;6213707;28;20069;-56
2022/09/01 02:13:29;;;;;;;21.33;8.53;;;;;;;;;;6211371;28;20796;-54
2022/09/01 02:16:32;;;;;;;20.67;8.27;;;;;;;;;;6213043;28;20141;-56
2022/09/01 02:19:37;;;;;;;;;;;;;;;;;;6211029;28;20164;-54
2022/09/01 02:22:38;;;;;;;16.98;8.32;;;;;;;;;;6209606;28;20020;-55
2022/09/01 02:25:43;;;;;;;16.95;7.93;;;;;;;;;;6210016;28;20424;-56
2022/09/01 02:28:48;;;;;;;21.05;8.98;;;;;;;;;;6210641;28;20129;-55
2022/09/01 02:31:51;;;;;;;20.25;8.63;;;;;;;;;;6210649;28;20153;-55
2022/09/01 02:34:52;;;;;;;30.15;9.82;;;;;;;;;;6212638;28;20148;-57
2022/09/01 02:37:59;;;;;;;25.95;9.43;;;;;;;;;;6210577;28;20099;-51
2022/09/01 02:41:02;;;;;;;20.30;9.52;;;;;;;;;;6209677;28;20052;-56
2022/09/01 02:44:10;;;;;;;20.13;8.68;;;;;;;;;;6211019;28;20088;-55
2022/09/01 02:47:11;;;;;;;18.45;8.05;;;;;;;;;;6211257;28;20501;-56
2022/09/01 02:50:15;;;;;;;19.33;8.70;;;;;;;;;;6211868;28;20137;-56
2022/09/01 02:53:18;;;;;;;20.15;8.43;;;;;;;;;;6211920;28;20536;-54
2022/09/01 02:56:21;;;;;;;19.00;8.55;;;;;;;;;;6212731;28;20111;-56
2022/09/01 02:59:26;;;;;;;20.33;10.15;;;;;;;;;;6211848;28;20045;-55
2022/09/01 03:02:27;;;;;;;20.15;9.00;;;;;;;;;;6210318;28;20501;-53
2022/09/01 03:05:30;;;;;;;18.38;8.77;;;;;;;;;;6208750;28;20053;-52
2022/09/01 03:08:35;;;;;;;19.42;8.85;;;;;;;;;;6210396;28;20053;-55
2022/09/01 03:11:38;;;;;;;21.55;9.32;;;;;;;;;;6209946;28;20145;-53
2022/09/01 03:14:39;;;;;;;19.20;8.43;;;;;;;;;;6206582;28;20042;-55
2022/09/01 03:17:40;;;;;;;20.55;8.40;;;;;;;;;;6208372;28;20705;-57
2022/09/01 03:20:45;;;;;;;23.80;8.77;;;;;;;;;;6210457;28;20092;-53
2022/09/01 03:23:47;;;;;;;19.38;9.23;;;;;;;;;;6211553;28;20543;-55
2022/09/01 03:26:49;;;;;;;;;;;;;;;;;;6210878;28;20053;-55
2022/09/01 03:29:49;;;;;;;22.55;8.55;;;;;;;;;;6207681;28;20008;-55
2022/09/01 03:32:50;;;;;;;22.02;8.73;;;;;;;;;;6209886;28;20405;-56
2022/09/01 03:35:52;;;;;;;21.60;8.50;;;;;;;;;;6210237;28;20177;-55
2022/09/01 03:38:54;;;;;;;15.82;7.80;;;;;;;;;;6211513;28;20050;-55
2022/09/01 03:41:56;;;;;;;19.13;8.25;;;;;;;;;;6208998;28;20484;-55
2022/09/01 03:44:57;;;;;;;;;;;;;;;;;;6210453;28;20050;-56
2022/09/01 03:47:58;;;;;;;18.05;8.10;;;;;;;;;;6210030;28;19931;-55
2022/09/01 03:51:01;;;;;;;18.77;9.18;;;;;;;;;;6210057;28;20180;-54
2022/09/01 03:54:02;;;;;;;21.45;9.23;;;;;;;;;;6207883;28;20069;-56
2022/09/01 03:57:05;;;;;;;19.25;8.20;;;;;;;;;;6207594;28;20053;-55
2022/09/01 04:00:14;;;;;;;15.32;8.00;;;;;;;;;;6207967;28;20041;-56
2022/09/01 04:03:20;;;;;;;23.52;9.02;;;;;;;;;;6211820;28;20050;-58
2022/09/01 04:06:22;;;;;;;16.85;7.93;;;;;;;;;;6209047;28;20044;-56
2022/09/01 04:09:23;;;;;;;23.48;8.25;;;;;;;;;;6209520;28;20060;-53
2022/09/01 04:12:24;;;;;;;17.80;8.13;;;;;;;;;;6209112;28;20054;-56
2022/09/01 04:15:26;;;;;;;20.30;9.00;;;;;;;;;;6192255;28;20033;-56
2022/09/01 04:18:29;;;;;;;21.02;8.40;;;;;;;;;;6222198;28;20152;-55
2022/09/01 04:21:30;;;;;;;15.60;8.50;;;;;;;;;;6207977;28;20038;-55
2022/09/01 04:24:32;;;;;;;18.92;9.20;;;;;;;;;;6210529;28;20580;-57
2022/09/01 04:27:32;;;;;;;18.83;9.00;;;;;;;;;;6204653;28;20042;-57
2022/09/01 04:30:35;;;;;;;20.10;9.18;;;;;;;;;;6211157;28;20342;-51
2022/09/01 04:33:38;;;;;;;19.25;8.68;;;;;;;;;;6211959;28;20042;-56
2022/09/01 04:36:43;;;;;;;20.30;10.95;;;;;;;;;;6209352;28;20046;-58
2022/09/01 04:39:52;;;;;;;17.17;8.30;;;;;;;;;;6212394;28;20052;-57
2022/09/01 04:42:53;;;;;;;19.73;8.75;;;;;;;;;;6217962;28;20540;-57
2022/09/01 04:45:55;;;;;;;30.17;10.40;;;;;;;;;;6220711;28;20064;-57
2022/09/01 04:48:56;;;;;;;25.95;9.55;;;;;;;;;;6218361;28;20050;-56
2022/09/01 04:51:57;;;;;;;19.60;9.30;;;;;;;;;;6212857;28;20050;-57
2022/09/01 04:54:57;;;;;;;24.67;10.50;;;;;;;;;;6211749;28;20053;-56
2022/09/01 04:58:00;;;;;;;25.00;9.98;;;;;;;;;;6214784;28;20038;-57
2022/09/01 05:01:12;;;;;;;23.20;10.13;;;;;;;;;;6215690;28;20053;-56
2022/09/01 05:04:18;;;;;;;24.98;9.43;;;;;;;;;;6212944;28;20479;-56
2022/09/01 05:07:20;;;;;;;22.95;9.55;;;;;;;;;;6211827;28;20050;-57
2022/09/01 05:10:22;;;;;;;20.40;9.00;;;;;;;;;;6208980;28;20769;-56
2022/09/01 05:13:23;;;;;;;;;;;;;;;;;;6210078;28;20042;-57
2022/09/01 05:16:24;;;;;;;23.92;9.70;;;;;;;;;;6210724;28;19932;-56
2022/09/01 05:19:28;;;;;;;22.90;9.07;;;;;;;;;;6211979;28;20045;-54
2022/09/01 05:22:30;;;;;;;21.40;8.95;;;;;;;;;;6213767;28;20143;-57
2022/09/01 05:25:37;;;;;;;21.92;8.00;;;;;;;;;;6215342;28;20788;-56
2022/09/01 05:28:38;;;;;;;19.58;8.38;;;;;;;;;;6211563;28;21001;-57
2022/09/01 05:31:40;;;;;;;17.83;7.78;;;;;;;;;;6213327;28;20053;-56
2022/09/01 05:34:42;;;;;;;18.65;8.23;;;;;;;;;;6213673;28;20084;-57
2022/09/01 05:37:43;;;;;;;15.57;7.70;;;;;;;;;;6210288;28;20145;-57
2022/09/01 05:40:44;;;;;;;13.95;7.38;;;;;;;;;;6213759;28;20973;-57
2022/09/01 05:43:47;;;;;;;16.00;7.03;;;;;;;;;;6210445;28;20204;-58
2022/09/01 05:46:49;;;;;;;19.95;6.43;;;;;;;;;;6211880;28;20486;-57
2022/09/01 05:49:52;;;;;;;11.80;6.55;;;;;;;;;;6209521;28;20088;-55
2022/09/01 05:52:52;;;;;;;11.77;6.00;;;;;;;;;;6212297;28;20420;-56
2022/09/01 05:55:55;;;;;;;18.02;6.45;;;;;;;;;;6211165;28;20045;-53
2022/09/01 05:58:58;;;;;;;10.93;5.68;;;;;;;;;;6212450;28;20037;-55
2022/09/01 06:01:59;;;;;;;12.95;6.20;;;;;;;;;;6213256;28;20050;-55
2022/09/01 06:05:00;;;;;;;10.60;5.13;;;;;;;;;;6211847;28;20050;-55
2022/09/01 06:08:03;;;;;;;9.80;6.18;;;;;;;;;;6210996;28;20046;-57
2022/09/01 06:11:11;;;;;;;11.57;5.25;;;;;;;;;;6213361;28;20405;-56
2022/09/01 06:14:14;;;;;;;8.95;4.47;;;;;;;;;;6217493;28;20129;-52
2022/09/01 06:17:20;;;;;;;19.48;7.40;;;;;;;;;;6218133;28;20054;-56
2022/09/01 06:20:21;;;;;;;7.60;4.10;;;;;;;;;;6218270;28;20516;-53
2022/09/01 06:23:22;;;;;;;14.38;5.13;;;;;;;;;;6214821;28;20064;-54
2022/09/01 06:26:29;;;;;;;9.35;4.53;;;;;;;;;;6214084;28;20518;-58
2022/09/01 06:29:30;;;;;;;8.15;3.85;;;;;;;;;;6205505;28;20444;-53
2022/09/01 06:32:33;;;;;;;16.17;4.93;;;;;;;;;;6207317;28;20156;-56
2022/09/01 06:35:34;;;;;;;;;;;;;;;;;;6206954;28;20473;-56
2022/09/01 06:38:36;;;;;;;11.20;4.75;;;;;;;;;;6207271;28;20011;-56
2022/09/01 06:41:37;;;;;;;15.18;5.38;;;;;;;;;;6205275;28;20072;-55
2022/09/01 06:44:39;;;;;;;10.93;4.68;;;;;;;;;;6212104;28;20580;-52
2022/09/01 06:47:46;;;;;;;10.35;4.38;;;;;;;;;;6189899;28;20050;-57
2022/09/01 06:50:46;;;;;;;10.90;4.60;;;;;;;;;;6202463;28;20050;-56
2022/09/01 06:53:51;;;;;;;9.82;4.32;;;;;;;;;;6211287;28;20067;-55
2022/09/01 06:56:52;;;;;;;11.43;4.38;;;;;;;;;;6208938;28;20060;-56
2022/09/01 06:59:53;;;;;;;10.73;4.82;;;;;;;;;;6206672;28;20050;-54
2022/09/01 07:02:55;;;;;;;8.73;4.53;;;;;;;;;;6208210;28;20038;-57
2022/09/01 07:05:57;;;;;;;9.23;4.32;;;;;;;;;;6208941;28;20045;-57
2022/09/01 07:09:00;;;;;;;10.45;4.88;;;;;;;;;;6210031;28;20121;-56
2022/09/01 07:12:02;;;;;;;9.68;4.50;;;;;;;;;;6209722;28;20149;-57
2022/09/01 07:15:03;;;;;;;9.40;4.75;;;;;;;;;;6210241;28;20060;-57
2022/09/01 07:18:09;;;;;;;11.00;3.95;;;;;;;;;;6209361;28;20506;-57
2022/09/01 07:21:09;;;;;;;8.27;3.60;;;;;;;;;;6208313;28;20137;-56
2022/09/01 07:24:11;;;;;;;9.23;3.88;;;;;;;;;;6211069;28;20049;-58
2022/09/01 07:27:12;;;;;;;;;;;;;;;;;;6209271;28;21502;-57
2022/09/01 07:30:12;;;;;;;8.05;3.58;;;;;;;;;;6207993;28;19963;-58
2022/09/01 07:33:19;;;;;;;7.35;3.40;;;;;;;;;;6208332;28;20046;-57
2022/09/01 07:36:20;;;;;;;7.80;4.65;;;;;;;;;;6210412;28;20045;-57
2022/09/01 07:39:21;;;;;;;7.03;3.77;;;;;;;;;;6207664;28;20076;-56
2022/09/01 07:42:21;;;;;;;6.35;3.40;;;;;;;;;;6210267;28;20488;-57
2022/09/01 07:45:24;;;;;;;6.68;3.45;;;;;;;;;;6211191;28;20045;-57
2022/09/01 07:48:26;;;;;;;;;;;;;;;;;;6210147;28;20042;-56
2022/09/01 07:51:29;;;;;;;9.80;3.50;;;;;;;;;;6208871;28;20383;-57
2022/09/01 07:54:30;;;;;;;10.57;3.22;;;;;;;;;;6207620;28;20489;-56
2022/09/01 07:57:31;;;;;;;7.55;2.90;;;;;;;;;;6209536;28;20157;-57
2022/09/01 08:00:33;;;;;;;4.60;2.60;;;;;;;;;;6208282;28;20813;-57
2022/09/01 08:03:34;;;;;;;;;;;;;;;;;;6210682;28;20583;-57
2022/09/01 08:06:34;;;;;;;5.40;2.70;;;;;;;;;;6208697;28;19932;-56
2022/09/01 08:09:37;;;;;;;5.82;2.83;;;;;;;;;;6208129;28;20042;-55
2022/09/01 08:12:37;;;;;;;;;;;;;;;;;;6210129;28;20037;-57
2022/09/01 08:15:38;;;;;;;5.75;2.47;;;;;;;;;;6209865;28;19926;-57
2022/09/01 08:18:40;;;;;;;5.70;2.60;;;;;;;;;;6207438;28;20053;-57
2022/09/01 08:21:41;;;;;;;;;;;;;;;;;;6191234;28;20034;-57
2022/09/01 08:24:42;;;;;;;5.53;2.65;;;;;;;;;;6209033;28;19929;-57
2022/09/01 08:27:42;;;;;;;5.73;2.20;;;;;;;;;;6208555;28;20152;-57
2022/09/01 08:30:44;;;;;;;6.53;2.65;;;;;;;;;;6206732;28;20065;-57
2022/09/01 08:33:47;;;;;;;9.60;3.03;;;;;;;;;;6209656;28;20045;-55
2022/09/01 08:36:47;;;;;;;5.40;2.80;;;;;;;;;;6209018;28;20116;-57
2022/09/01 08:39:48;;;;;;;9.43;2.65;;;;;;;;;;6206545;28;20156;-58
2022/09/01 08:42:55;;;;;;;9.18;3.50;;;;;;;;;;6208108;28;20038;-57
2022/09/01 08:46:01;;;;;;;10.00;3.03;;;;;;;;;;6207839;28;20520;-58
2022/09/01 08:49:22;;;;;;;7.07;2.72;;;;;;;;;;6208839;28;20073;-57
2022/09/01 08:52:35;;;;;;;7.80;3.47;;;;;;;;;;6207647;28;20137;-57
2022/09/01 08:55:48;;;;;;;8.80;3.30;;;;;;;;;;6207556;28;20045;-57
2022/09/01 08:58:49;;;;;;;8.23;3.40;;;;;;;;;;6210269;28;20563;-57
2022/09/01 09:02:03;;;;;;;8.32;3.13;;;;;;;;;;6208419;28;20042;-57
2022/09/01 09:05:23;;;;;;;10.63;3.30;;;;;;;;;;6207611;28;20132;-57
2022/09/01 09:08:47;;;;;;;11.07;3.88;;;;;;;;;;6212486;28;20050;-58
2022/09/01 09:12:05;;;;;;;10.57;3.72;;;;;;;;;;6212936;28;20136;-56
2022/09/01 09:15:32;;;;;;;11.85;3.85;;;;;;;;;;6214936;28;20205;-55
2022/09/01 09:18:47;;;;;;;10.43;3.85;;;;;;;;;;6205349;28;20045;-53
2022/09/01 09:21:50;;;;;;;10.95;3.42;;;;;;;;;;6206515;28;20133;-58
2022/09/01 09:25:10;;;;;;;8.02;3.50;;;;;;;;;;6194623;28;20232;-52
2022/09/01 09:28:10;;;;;;;7.88;3.13;;;;;;;;;;6207071;28;20042;-56
2022/09/01 09:31:47;;;;;;;8.57;4.03;;;;;;;;;;6205262;28;20053;-57
2022/09/01 09:34:49;;;;;;;9.25;3.38;;;;;;;;;;6194477;28;20059;-56
2022/09/01 09:37:50;;;;;;;9.77;3.67;;;;;;;;;;6210084;28;20144;-55
2022/09/01 09:41:06;;;;;;;8.73;3.20;;;;;;;;;;6211376;28;20455;-55
2022/09/01 09:44:43;;;;;;;11.30;4.68;;;;;;;;;;6207138;28;20062;-57
2022/09/01 09:47:45;;;;;;;9.65;3.20;;;;;;;;;;6201908;28;20172;-57
2022/09/01 09:50:46;;;;;;;8.10;3.00;;;;;;;;;;6209455;28;20959;-54
2022/09/01 09:53:47;;;;;;;8.00;2.95;;;;;;;;;;6207705;28;20046;-56
2022/09/01 09:57:03;;;;;;;7.70;2.60;;;;;;;;;;6211556;28;20145;-54
2022/09/01 10:00:15;;;;;;;5.97;2.90;;;;;;;;;;6207542;28;20356;-56
2022/09/01 10:03:16;;;;;;;8.73;3.00;;;;;;;;;;6210408;28;20056;-55
2022/09/01 10:06:50;;;;;;;8.50;3.00;;;;;;;;;;6207669;28;20132;-56
2022/09/01 10:09:54;;;;;;;5.75;2.60;;;;;;;;;;6175838;28;20054;-55
2022/09/01 10:12:56;;;;;;;5.65;2.47;;;;;;;;;;6206569;28;20100;-55
2022/09/01 10:16:00;;;;;;;4.75;2.40;;;;;;;;;;6206174;28;20057;-55
2022/09/01 10:19:01;;;;;;;5.15;2.40;;;;;;;;;;6207539;28;20061;-52
2022/09/01 10:22:02;;;;;;;5.57;2.50;;;;;;;;;;6208000;28;20144;-56
2022/09/01 10:25:08;;;;;;;8.70;2.70;;;;;;;;;;6210304;28;20061;-56
2022/09/01 10:28:14;;;;;;;10.10;3.55;;;;;;;;;;6208138;28;20049;-55
2022/09/01 10:31:14;;;;;;;6.85;2.90;;;;;;;;;;6207075;28;20046;-55
2022/09/01 10:34:18;;;;;;;10.18;3.38;;;;;;;;;;6206596;28;20120;-56
2022/09/01 10:37:19;;;;;;;8.63;3.58;;;;;;;;;;6206451;28;20145;-54
2022/09/01 10:40:27;;;;;;;8.60;3.37;;;;;;;;;;6207013;28;20400;-56
2022/09/01 10:43:36;;;;;;;6.93;3.55;;;;;;;;;;6204022;28;20428;-57
2022/09/01 10:46:36;;;;;;;6.70;2.20;;;;;;;;;;6208749;28;20500;-54
2022/09/01 10:49:37;;;;;;;7.90;2.03;;;;;;;;;;6208904;28;20045;-54
2022/09/01 10:52:40;;;;;;;5.03;2.20;;;;;;;;;;6205372;28;20061;-57
2022/09/01 10:56:00;;;;;;;5.70;2.10;;;;;;;;;;6206740;28;20042;-58
2022/09/01 10:59:07;;;;;;;4.50;2.03;;;;;;;;;;6212830;28;20420;-57
2022/09/01 11:02:17;;;;;;;4.13;2.10;;;;;;;;;;6216852;28;20052;-56
2022/09/01 11:05:18;;;;;;;7.15;2.20;;;;;;;;;;6217367;28;20165;-55
2022/09/01 11:08:28;;;;;;;7.37;2.07;;;;;;;;;;6217275;28;20153;-57
2022/09/01 11:11:40;;;;;;;3.90;1.90;;;;;;;;;;6213999;28;20580;-56
2022/09/01 11:14:49;;;;;;;3.72;1.90;;;;;;;;;;6213177;28;20140;-57
2022/09/01 11:17:50;;;;;;;6.82;2.20;;;;;;;;;;6218864;28;20128;-58
2022/09/01 11:20:51;;;;;;;5.97;2.37;;;;;;;;;;6218230;28;20518;-57
2022/09/01 11:24:30;;;;;;;6.97;2.20;;;;;;;;;;6214924;28;20134;-55
2022/09/01 11:27:49;;;;;;;5.13;2.53;;;;;;;;;;6215169;28;20803;-56
2022/09/01 11:31:04;;;;;;;3.42;1.70;;;;;;;;;;6217806;28;20480;-55
2022/09/01 11:34:10;;;;;;;5.90;2.10;;;;;;;;;;6211911;28;20049;-57
2022/09/01 11:37:15;;;;;;;5.72;2.28;;;;;;;;;;6206030;28;20077;-57
2022/09/01 11:40:25;;;;;;;5.10;1.92;;;;;;;;;;6209985;28;20188;-57
2022/09/01 11:43:26;;;;;;;4.80;1.98;;;;;;;;;;6211438;28;20046;-57
2022/09/01 11:46:31;;;;;;;5.53;1.73;;;;;;;;;;6212526;28;20068;-58
2022/09/01 11:50:04;;;;;;;5.15;2.20;;;;;;;;;;6210670;28;20052;-56
2022/09/01 11:53:08;;;;;;;5.82;2.03;;;;;;;;;;6212351;28;20064;-55
2022/09/01 11:56:19;;;;;;;4.45;1.80;;;;;;;;;;6209666;28;20936;-57
2022/09/01 11:59:35;;;;;;;4.47;1.80;;;;;;;;;;6205204;28;20058;-58
2022/09/01 12:02:46;;;;;;;3.97;2.13;;;;;;;;;;6208195;28;20555;-56
2022/09/01 12:05:53;;;;;;;4.18;1.60;;;;;;;;;;6200997;28;20425;-57
2022/09/01 12:08:56;;;;;;;3.63;1.70;;;;;;;;;;6202563;28;20589;-57
2022/09/01 12:11:56;;;;;;;4.82;1.70;;;;;;;;;;6205319;28;20046;-57
2022/09/01 12:15:06;;;;;;;5.20;1.57;;;;;;;;;;6202192;28;20472;-56
2022/09/01 12:18:14;;;;;;;6.25;1.75;;;;;;;;;;6206971;28;20049;-56
2022/09/01 12:21:33;;;;;;;7.68;1.90;;;;;;;;;;6205084;28;20096;-57
2022/09/01 12:24:35;;;;;;;6.13;2.15;;;;;;;;;;6202162;28;20582;-58
2022/09/01 12:27:36;;;;;;;5.90;1.63;;;;;;;;;;6204175;28;20057;-58
2022/09/01 12:30:39;;;;;;;7.10;1.97;;;;;;;;;;6207908;28;20057;-57
2022/09/01 12:33:43;;;;;;;3.15;1.42;;;;;;;;;;6203829;28;20080;-59
2022/09/01 12:37:00;;;;;;;4.75;1.80;;;;;;;;;;6205176;28;20168;-56
2022/09/01 12:40:01;;;;;;;4.47;1.70;;;;;;;;;;6203964;28;20794;-66
2022/09/01 12:43:01;;;;;;;4.37;1.50;;;;;;;;;;6203454;28;20096;-56
2022/09/01 12:46:03;;;;;;;7.17;1.80;;;;;;;;;;6203358;28;20064;-56
2022/09/01 12:49:37;;;;;;;4.65;1.55;;;;;;;;;;6202700;28;20100;-56
2022/09/01 12:52:45;;;;;;;3.15;1.60;;;;;;;;;;6214361;28;20065;-56
2022/09/01 12:55:58;;;;;;;8.15;1.80;;;;;;;;;;6184682;28;20799;-55
2022/09/01 12:59:10;;;;;;;5.55;1.90;;;;;;;;;;6203751;28;20046;-55
2022/09/01 13:02:33;;;;;;;3.42;1.67;;;;;;;;;;6208239;28;20050;-55
2022/09/01 13:05:39;;;;;;;6.20;1.80;;;;;;;;;;6211001;28;20050;-54
2022/09/01 13:08:39;;;;;;;4.97;1.50;;;;;;;;;;6213039;28;20058;-56
2022/09/01 13:11:41;;;;;;;4.00;1.63;;;;;;;;;;6207872;28;20444;-56
2022/09/01 13:14:42;;;;;;;4.32;1.58;;;;;;;;;;6205604;28;20064;-56
2022/09/01 13:17:43;;;;;;;6.83;1.80;;;;;;;;;;6215435;28;20057;-55
2022/09/01 13:20:43;;;;;;;7.30;1.70;;;;;;;;;;6212142;28;20145;-56
2022/09/01 13:23:45;;;;;;;3.90;1.77;;;;;;;;;;6208319;28;20527;-56
2022/09/01 13:26:53;;;;;;;5.10;2.30;;;;;;;;;;6208326;28;20527;-55
2022/09/01 13:29:54;;;;;;;5.03;1.70;;;;;;;;;;6209531;28;20132;-56
2022/09/01 13:32:56;;;;;;;6.43;1.87;;;;;;;;;;6209647;28;20042;-57
2022/09/01 13:35:57;;;;;;;6.95;1.90;;;;;;;;;;6214470;28;20049;-55
2022/09/01 13:38:57;;;;;;;5.63;2.10;;;;;;;;;;6218310;28;20054;-55
2022/09/01 13:41:58;;;;;;;5.53;1.87;;;;;;;;;;6219066;28;20432;-55
2022/09/01 13:44:58;;;;;;;5.67;1.90;;;;;;;;;;6208469;28;20065;-55
2022/09/01 13:47:59;;;;;;;5.57;1.60;;;;;;;;;;6212712;28;20061;-55
2022/09/01 13:51:00;;;;;;;6.13;2.43;;;;;;;;;;6216403;28;20060;-53
2022/09/01 13:54:01;;;;;;;7.70;2.00;;;;;;;;;;6216889;28;20046;-53
2022/09/01 13:57:02;;;;;;;5.97;2.00;;;;;;;;;;6214646;28;20045;-56
2022/09/01 14:00:16;;;;;;;3.77;1.43;;;;;;;;;;6206486;28;20049;-58
2022/09/01 14:03:21;;;;;;;6.63;1.80;;;;;;;;;;6209683;28;20080;-56
2022/09/01 14:06:22;;;;;;;4.07;2.30;;;;;;;;;;6209812;28;21087;-56
2022/09/01 14:09:22;;;;;;;3.60;1.50;;;;;;;;;;6209033;28;20050;-57
2022/09/01 14:12:23;;;;;;;5.57;1.67;;;;;;;;;;6214433;28;20060;-55
2022/09/01 14:15:24;;;;;;;6.73;1.80;;;;;;;;;;6214699;28;20061;-56
2022/09/01 14:18:31;;;;;;;3.45;1.50;;;;;;;;;;6217474;28;20050;-55
2022/09/01 14:21:32;;;;;;;3.92;1.20;;;;;;;;;;6214516;28;20038;-55
2022/09/01 14:24:35;;;;;;;4.90;1.53;;;;;;;;;;6213116;28;20168;-55
2022/09/01 14:27:37;;;;;;;3.53;1.30;;;;;;;;;;6216392;28;20046;-55
2022/09/01 14:30:41;;;;;;;4.00;1.70;;;;;;;;;;6216260;28;20052;-55
2022/09/01 14:33:44;;;;;;;4.60;1.58;;;;;;;;;;6214950;28;20042;-55
2022/09/01 14:36:46;;;;;;;7.03;1.77;;;;;;;;;;6216612;28;20125;-53
2022/09/01 14:39:51;;;;;;;6.55;1.67;;;;;;;;;;6214740;28;20046;-58
2022/09/01 14:42:51;;;;;;;5.40;1.30;;;;;;;;;;6214186;28;20117;-57
2022/09/01 14:46:09;;;;;;;3.23;1.30;;;;;;;;;;6207571;28;20065;-55
2022/09/01 14:49:10;;;;;;;2.72;1.30;;;;;;;;;;6204718;28;20917;-56
2022/09/01 14:52:13;;;;;;;3.28;1.30;;;;;;;;;;6203250;28;20128;-56
2022/09/01 14:55:14;;;;;;;4.40;1.88;;;;;;;;;;6207878;28;20153;-56
2022/09/01 14:58:15;;;;;;;4.05;1.35;;;;;;;;;;6207376;28;20340;-56
2022/09/01 15:01:19;;;;;;;4.65;1.42;;;;;;;;;;6208274;28;20054;-57
2022/09/01 15:04:21;;;;;;;6.22;1.67;;;;;;;;;;6208499;28;20049;-57
2022/09/01 15:07:21;;;;;;;15.60;1.80;;;;;;;;;;6207809;28;20064;-56
2022/09/01 15:10:24;;;;;;;6.33;1.60;;;;;;;;;;6214213;28;20054;-56
2022/09/01 15:13:25;;;;;;;3.63;1.10;;;;;;;;;;6215058;28;20707;-55
2022/09/01 15:16:27;;;;;;;3.27;1.60;;;;;;;;;;6215842;28;20046;-54
2022/09/01 15:19:27;;;;;;;3.17;1.65;;;;;;;;;;6209590;28;21104;-54
2022/09/01 15:22:28;;;;;;;3.03;1.43;;;;;;;;;;6226801;28;20052;-55
2022/09/01 15:25:29;;;;;;;5.73;1.63;;;;;;;;;;6213746;28;20123;-55
2022/09/01 15:28:29;;;;;;;3.33;1.40;;;;;;;;;;6204750;28;20064;-54
2022/09/01 15:31:32;;;;;;;6.77;1.30;;;;;;;;;;6215817;28;20046;-55
2022/09/01 15:34:32;;;;;;;3.65;1.92;;;;;;;;;;6211713;28;20841;-55
2022/09/01 15:37:33;;;;;;;2.47;1.00;;;;;;;;;;6217026;28;20180;-56
2022/09/01 15:40:33;;;;;;;10.70;1.47;;;;;;;;;;6218324;28;20091;-54
2022/09/01 15:43:35;;;;;;;3.63;1.40;;;;;;;;;;6215215;28;20507;-54
2022/09/01 15:46:37;;;;;;;6.85;1.90;;;;;;;;;;6213654;28;20404;-54
2022/09/01 15:49:38;;;;;;;4.75;1.48;;;;;;;;;;6210996;28;20077;-53
2022/09/01 15:52:57;;;;;;;9.47;2.73;;;;;;;;;;6214078;28;20034;-55
2022/09/01 15:55:58;;;;;;;53.38;15.43;;;;;;;;;;6213595;28;20046;-53
2022/09/01 15:59:00;;;;;;;29.77;11.07;;;;;;;;;;6212844;28;20071;-53
2022/09/01 16:02:00;;;;;;;15.57;4.90;;;;;;;;;;6211113;28;20136;-55
2022/09/01 16:05:01;;;;;;;6.83;2.47;;;;;;;;;;6214497;28;20108;-56
2022/09/01 16:08:07;;;;;;;3.90;2.00;;;;;;;;;;6217199;28;20488;-50
2022/09/01 16:11:09;;;;;;;8.57;1.70;;;;;;;;;;6218348;28;20038;-51
2022/09/01 16:14:10;;;;;;;6.68;1.75;;;;;;;;;;6213527;28;20060;-49
2022/09/01 16:17:18;;;;;;;6.67;1.70;;;;;;;;;;6210988;28;20046;-50
2022/09/01 16:20:27;;;;;;;6.00;1.83;;;;;;;;;;6216567;28;20087;-50
2022/09/01 16:23:38;;;;;;;5.20;1.75;;;;;;;;;;6216038;28;20119;-54
2022/09/01 16:26:39;;;;;;;5.53;2.30;;;;;;;;;;6210627;28;20049;-53
2022/09/01 16:29:48;;;;;;;;;;;;;;;;;;6212735;28;20080;-54
2022/09/01 16:32:49;;;;;;;4.65;1.45;;;;;;;;;;6213631;28;19947;-51
2022/09/01 16:36:05;;;;;;;5.63;1.60;;;;;;;;;;6219247;28;20038;-52
2022/09/01 16:39:27;;;;;;;5.47;1.80;;;;;;;;;;6211724;28;20119;-51
2022/09/01 16:43:03;;;;;;;5.78;1.77;;;;;;;;;;6212659;28;20607;-54
2022/09/01 16:46:29;;;;;;;4.38;1.67;;;;;;;;;;6180190;28;20056;-53
2022/09/01 16:49:40;;;;;;;6.03;1.67;;;;;;;;;;6212827;28;20054;-50
2022/09/01 16:53:18;;;;;;;8.85;2.00;;;;;;;;;;6212544;28;20134;-53
2022/09/01 16:56:29;;;;;;;4.57;1.73;;;;;;;;;;6211575;28;20064;-52
2022/09/01 16:59:47;;;;;;;5.82;1.70;;;;;;;;;;6210650;28;20149;-54
2022/09/01 17:03:00;;;;;;;6.53;2.15;;;;;;;;;;6211040;28;20085;-54
2022/09/01 17:06:27;;;;;;;6.20;1.92;;;;;;;;;;6211244;28;20465;-56
2022/09/01 17:09:34;;;;;;;4.28;1.90;;;;;;;;;;6211328;28;20069;-56
2022/09/01 17:12:54;;;;;;;5.35;1.80;;;;;;;;;;6213184;28;20132;-56
2022/09/01 17:16:21;;;;;;;4.93;1.70;;;;;;;;;;6211706;28;20078;-52
2022/09/01 17:19:24;;;;;;;4.75;2.25;;;;;;;;;;6205701;28;20139;-72
2022/09/01 17:22:25;;;;;;;6.03;2.00;;;;;;;;;;6209256;28;20516;-69
2022/09/01 17:25:32;;;;;;;6.57;2.10;;;;;;;;;;6211012;28;20123;-54
2022/09/01 17:28:42;;;;;;;6.03;1.70;;;;;;;;;;6212165;28;20581;-53
2022/09/01 17:31:51;;;;;;;5.65;1.95;;;;;;;;;;6213214;28;20057;-56
2022/09/01 17:35:00;;;;;;;5.93;2.03;;;;;;;;;;6210146;28;20057;-55
2022/09/01 17:38:20;;;;;;;7.18;2.85;;;;;;;;;;6213360;28;20133;-56
2022/09/01 17:41:43;;;;;;;6.95;3.15;;;;;;;;;;6215277;28;20049;-56
2022/09/01 17:44:51;;;;;;;8.95;3.13;;;;;;;;;;6210774;28;20056;-59
2022/09/01 17:47:59;;;;;;;6.68;2.65;;;;;;;;;;6200110;28;20053;-59
2022/09/01 17:51:09;;;;;;;7.40;2.90;;;;;;;;;;6221291;28;20061;-58
2022/09/01 17:54:47;;;;;;;7.18;2.80;;;;;;;;;;6220316;28;20090;-58
2022/09/01 17:57:57;;;;;;;14.40;3.97;;;;;;;;;;6217419;28;20068;-58
2022/09/01 18:01:14;;;;;;;57.60;14.35;;;;;;;;;;6206982;28;21615;-56
2022/09/01 18:04:21;;;;;;;41.60;9.75;;;;;;;;;;6208994;28;20050;-54
2022/09/01 18:07:40;;;;;;;18.33;5.30;;;;;;;;;;6203977;28;20050;-55
2022/09/01 18:10:58;;;;;;;12.35;5.07;;;;;;;;;;6207091;28;20177;-53
2022/09/01 18:14:13;;;;;;;9.95;4.63;;;;;;;;;;6206491;28;20049;-53
2022/09/01 18:17:30;;;;;;;12.50;5.07;;;;;;;;;;6205391;28;20542;-55
2022/09/01 18:20:45;;;;;;;9.18;3.88;;;;;;;;;;6208368;28;20865;-55
2022/09/01 18:23:50;;;;;;;9.55;3.92;;;;;;;;;;6207152;28;20096;-55
2022/09/01 18:26:51;;;;;;;9.30;4.20;;;;;;;;;;6204391;28;20045;-56
2022/09/01 18:29:52;;;;;;;9.27;4.07;;;;;;;;;;6207862;28;20060;-54
2022/09/01 18:33:22;;;;;;;6.97;3.90;;;;;;;;;;6204819;28;20709;-54